createdAt,value
2023-01-25T00:01:22.521Z,56.40
2023-01-25T00:03:51.188Z,58.40
2023-01-25T00:06:19.748Z,52.47
2023-01-25T00:08:51.227Z,47.40
2023-01-25T00:11:20.556Z,52.20
2023-01-25T00:13:49.155Z,46.60
2023-01-25T00:16:19.151Z,44.87
2023-01-25T00:18:47.694Z,51.97
2023-01-25T00:21:17.388Z,47.47
2023-01-25T00:23:46.301Z,43.63
2023-01-25T00:26:15.212Z,42.10
2023-01-25T00:28:44.012Z,42.87
2023-01-25T00:31:23.161Z,42.00
2023-01-25T00:33:57.836Z,44.10
2023-01-25T00:36:35.319Z,41.53
2023-01-25T00:39:04.015Z,40.70
2023-01-25T00:41:32.651Z,45.47
2023-01-25T00:44:02.107Z,47.93
2023-01-25T00:46:32.198Z,41.63
2023-01-25T00:49:00.772Z,47.33
2023-01-25T00:51:29.373Z,34.57
2023-01-25T00:53:58.057Z,37.97
2023-01-25T00:56:26.646Z,45.63
2023-01-25T00:58:55.237Z,39.50
2023-01-25T01:01:23.859Z,41.33
2023-01-25T01:03:54.931Z,42.40
2023-01-25T01:06:23.478Z,43.87
2023-01-25T01:08:52.323Z,45.70
2023-01-25T01:11:21.228Z,46.47
2023-01-25T01:13:49.957Z,43.60
2023-01-25T01:16:18.513Z,48.97
2023-01-25T01:18:47.516Z,44.60
2023-01-25T01:21:17.657Z,46.87
2023-01-25T01:23:46.676Z,47.70
2023-01-25T01:26:17.335Z,49.07
2023-01-25T01:28:45.900Z,48.50
2023-01-25T01:31:16.504Z,53.50
2023-01-25T01:33:45.200Z,45.87
2023-01-25T01:36:17.982Z,52.33
2023-01-25T01:38:46.945Z,46.07
2023-01-25T01:41:16.531Z,52.43
2023-01-25T01:43:45.494Z,50.90
2023-01-25T01:46:18.171Z,42.33
2023-01-25T01:48:49.361Z,47.37
2023-01-25T01:51:24.613Z,49.10
2023-01-25T01:53:57.882Z,45.33
2023-01-25T01:56:33.123Z,46.97
2023-01-25T01:59:03.057Z,48.60
2023-01-25T02:01:31.913Z,48.20
2023-01-25T02:04:01.738Z,46.50
2023-01-25T02:06:37.971Z,50.63
2023-01-25T02:09:06.579Z,53.57
2023-01-25T02:11:35.937Z,50.20
2023-01-25T02:14:05.280Z,46.43
2023-01-25T02:16:33.958Z,42.47
2023-01-25T02:19:03.936Z,39.43
2023-01-25T02:21:41.029Z,42.60
2023-01-25T02:24:13.882Z,43.60
2023-01-25T02:26:45.800Z,42.00
2023-01-25T02:29:15.443Z,46.83
2023-01-25T02:31:46.701Z,43.57
2023-01-25T02:34:15.561Z,47.80
2023-01-25T02:36:44.170Z,47.57
2023-01-25T02:39:19.031Z,44.93
2023-01-25T02:41:49.501Z,49.40
2023-01-25T02:44:22.929Z,45.97
2023-01-25T02:46:51.524Z,47.60
2023-01-25T02:49:20.474Z,49.90
2023-01-25T02:51:51.216Z,25.05
2023-01-25T02:54:22.042Z,59.90
2023-01-25T02:56:52.019Z,38.83
2023-01-25T02:59:20.522Z,45.93
2023-01-25T03:01:49.419Z,44.73
2023-01-25T03:04:18.101Z,42.30
2023-01-25T03:06:46.765Z,42.10
2023-01-25T03:09:15.291Z,42.10
2023-01-25T03:11:43.803Z,46.83
2023-01-25T03:14:13.840Z,49.17
2023-01-25T03:16:42.587Z,45.70
2023-01-25T03:19:11.220Z,45.20
2023-01-25T03:21:41.948Z,42.67
2023-01-25T03:24:12.272Z,46.57
2023-01-25T03:26:54.590Z,45.83
2023-01-25T03:29:24.793Z,44.90
2023-01-25T03:31:53.919Z,53.90
2023-01-25T03:34:22.482Z,48.67
2023-01-25T03:36:51.295Z,43.93
2023-01-25T03:39:19.864Z,39.97
2023-01-25T03:41:48.448Z,40.43
2023-01-25T03:44:17.021Z,42.03
2023-01-25T03:46:47.017Z,36.87
2023-01-25T03:49:15.515Z,42.53
2023-01-25T03:51:44.067Z,44.77
2023-01-25T03:54:12.696Z,46.93
2023-01-25T03:56:41.207Z,40.13
2023-01-25T03:59:09.965Z,37.97
2023-01-25T04:01:38.506Z,40.70
2023-01-25T04:04:08.570Z,44.73
2023-01-25T04:06:37.697Z,47.10
2023-01-25T04:09:06.538Z,49.80
2023-01-25T04:11:35.107Z,41.87
2023-01-25T04:14:03.638Z,39.63
2023-01-25T04:16:32.148Z,48.13
2023-01-25T04:19:00.776Z,49.83
2023-01-25T04:21:30.887Z,45.10
2023-01-25T04:23:59.510Z,45.37
2023-01-25T04:26:28.219Z,52.23
2023-01-25T04:28:56.811Z,48.97
2023-01-25T04:31:25.470Z,45.30
2023-01-25T04:33:54.101Z,49.77
2023-01-25T04:36:22.743Z,47.43
2023-01-25T04:38:52.715Z,53.17
2023-01-25T04:41:21.402Z,46.97
2023-01-25T04:43:49.955Z,45.33
2023-01-25T04:46:18.491Z,48.53
2023-01-25T04:48:47.098Z,44.70
2023-01-25T04:51:15.867Z,45.67
2023-01-25T04:53:44.413Z,48.83
2023-01-25T04:56:14.604Z,43.90
2023-01-25T04:58:43.251Z,31.13
2023-01-25T05:01:12.207Z,69.50
2023-01-25T05:03:40.719Z,54.15
2023-01-25T05:06:09.452Z,33.70
2023-01-25T05:08:38.109Z,72.03
2023-01-25T05:11:07.080Z,59.83
2023-01-25T05:13:40.257Z,35.05
2023-01-25T05:16:09.826Z,65.93
2023-01-25T05:18:48.008Z,52.40
2023-01-25T05:21:31.313Z,40.42
2023-01-25T05:24:00.045Z,62.17
2023-01-25T05:26:45.846Z,36.38
2023-01-25T05:29:15.897Z,68.23
2023-01-25T05:31:53.912Z,43.17
2023-01-25T05:34:27.771Z,68.67
2023-01-25T05:36:56.356Z,58.77
2023-01-25T05:39:25.239Z,48.63
2023-01-25T05:41:53.909Z,47.20
2023-01-25T05:44:24.373Z,44.07
2023-01-25T05:46:53.240Z,42.63
2023-01-25T05:49:21.871Z,43.40
2023-01-25T05:51:50.472Z,43.20
2023-01-25T05:54:19.672Z,46.33
2023-01-25T05:56:50.346Z,46.50
2023-01-25T05:59:19.319Z,52.33
2023-01-25T06:01:49.461Z,48.00
2023-01-25T06:04:18.569Z,51.50
2023-01-25T06:06:47.275Z,50.90
2023-01-25T06:09:16.395Z,51.70
2023-01-25T06:11:46.162Z,53.27
2023-01-25T06:14:15.059Z,54.33
2023-01-25T06:16:43.715Z,50.60
2023-01-25T06:19:15.962Z,51.07
2023-01-25T06:21:44.787Z,57.37
2023-01-25T06:24:13.739Z,53.13
2023-01-25T06:26:42.432Z,54.70
2023-01-25T06:29:11.119Z,49.83
2023-01-25T06:31:40.057Z,52.93
2023-01-25T06:34:09.852Z,51.57
2023-01-25T06:36:39.903Z,49.83
2023-01-25T06:39:08.607Z,49.40
2023-01-25T06:41:37.423Z,56.70
2023-01-25T06:44:06.480Z,51.30
2023-01-25T06:46:35.660Z,53.37
2023-01-25T06:49:04.444Z,55.10
2023-01-25T06:51:33.153Z,55.07
2023-01-25T06:54:05.011Z,58.63
2023-01-25T06:56:34.072Z,51.63
2023-01-25T06:59:03.096Z,53.33
2023-01-25T07:01:31.925Z,53.67
2023-01-25T07:04:01.079Z,54.17
2023-01-25T07:06:34.617Z,55.50
2023-01-25T07:09:10.712Z,53.97
2023-01-25T07:11:39.501Z,51.90
2023-01-25T07:14:08.318Z,51.00
2023-01-25T07:16:38.883Z,54.63
2023-01-25T07:19:09.115Z,52.23
2023-01-25T07:21:38.036Z,52.00
2023-01-25T07:24:08.741Z,49.47
2023-01-25T07:26:37.255Z,55.80
2023-01-25T07:29:05.951Z,56.03
2023-01-25T07:31:34.667Z,49.03
2023-01-25T07:34:03.452Z,53.60
2023-01-25T07:36:32.509Z,54.93
2023-01-25T07:39:01.174Z,50.47
2023-01-25T07:41:32.620Z,51.30
2023-01-25T07:44:01.181Z,51.03
2023-01-25T07:46:29.718Z,50.00
2023-01-25T07:48:59.015Z,53.90
2023-01-25T07:51:28.100Z,57.03
2023-01-25T07:53:58.794Z,60.77
2023-01-25T07:56:29.100Z,56.03
2023-01-25T07:59:00.770Z,56.27
2023-01-25T08:01:31.281Z,54.47
2023-01-25T08:04:01.127Z,52.23
2023-01-25T08:06:35.720Z,54.53
2023-01-25T08:09:07.196Z,52.03
2023-01-25T08:11:36.271Z,62.13
2023-01-25T08:14:06.240Z,54.03
2023-01-25T08:16:34.812Z,56.03
2023-01-25T08:19:04.294Z,53.27
2023-01-25T08:21:34.919Z,54.80
2023-01-25T08:24:05.211Z,52.47
2023-01-25T08:26:34.467Z,59.80
2023-01-25T08:29:03.230Z,50.53
2023-01-25T08:31:35.296Z,54.30
2023-01-25T08:34:04.027Z,52.27
2023-01-25T08:36:32.789Z,51.77
2023-01-25T08:39:03.394Z,54.67
2023-01-25T08:41:33.833Z,56.00
2023-01-25T08:44:19.608Z,54.70
2023-01-25T08:46:49.958Z,51.63
2023-01-25T08:49:18.720Z,52.90
2023-01-25T08:51:50.487Z,56.70
2023-01-25T08:54:19.081Z,50.50
2023-01-25T08:56:47.632Z,51.37
2023-01-25T08:59:16.195Z,57.93
2023-01-25T09:01:44.786Z,59.27
2023-01-25T09:04:14.859Z,53.37
2023-01-25T09:06:43.509Z,56.47
2023-01-25T09:09:13.962Z,55.67
2023-01-25T09:11:42.497Z,57.10
2023-01-25T09:14:11.592Z,57.47
2023-01-25T09:16:40.674Z,57.90
2023-01-25T09:19:09.369Z,58.60
2023-01-25T09:21:40.361Z,54.03
2023-01-25T09:24:09.307Z,57.93
2023-01-25T09:26:39.446Z,58.93
2023-01-25T09:29:09.225Z,60.97
2023-01-25T09:31:41.253Z,55.37
2023-01-25T09:34:10.273Z,54.40
2023-01-25T09:36:40.585Z,52.17
2023-01-25T09:39:09.516Z,57.17
2023-01-25T09:42:13.969Z,52.70
2023-01-25T09:45:08.400Z,55.53
2023-01-25T09:47:44.173Z,49.63
2023-01-25T09:50:35.807Z,54.47
2023-01-25T09:53:24.554Z,55.50
2023-01-25T09:55:55.937Z,49.10
2023-01-25T09:58:30.774Z,46.43
2023-01-25T10:01:29.504Z,46.67
2023-01-25T10:04:11.809Z,46.23
2023-01-25T10:06:48.790Z,53.10
2023-01-25T10:09:35.544Z,48.10
2023-01-25T10:12:15.379Z,50.10
2023-01-25T10:14:45.843Z,50.93
2023-01-25T10:17:20.543Z,49.23
2023-01-25T10:20:10.231Z,52.33
2023-01-25T10:22:43.992Z,45.50
2023-01-25T10:25:33.638Z,47.13
2023-01-25T10:28:26.442Z,53.43
2023-01-25T10:31:01.532Z,49.60
2023-01-25T10:33:34.977Z,50.43
2023-01-25T10:36:07.103Z,53.47
2023-01-25T10:38:39.423Z,51.27
2023-01-25T10:41:14.023Z,55.53
2023-01-25T10:43:42.593Z,54.33
2023-01-25T10:46:20.849Z,50.73
2023-01-25T10:48:49.675Z,45.97
2023-01-25T10:51:32.824Z,43.03
2023-01-25T10:54:04.717Z,45.10
2023-01-25T10:56:35.761Z,47.87
2023-01-25T10:59:15.577Z,53.33
2023-01-25T11:01:44.586Z,52.30
2023-01-25T11:04:33.492Z,59.70
2023-01-25T11:07:03.146Z,54.67
2023-01-25T11:09:39.709Z,66.73
2023-01-25T11:12:19.802Z,65.97
2023-01-25T11:14:51.219Z,58.50
2023-01-25T11:17:30.590Z,61.83
2023-01-25T11:20:19.763Z,57.13
2023-01-25T11:22:54.672Z,52.93
2023-01-25T11:25:32.329Z,51.67
2023-01-25T11:28:19.365Z,51.03
2023-01-25T11:30:48.891Z,55.10
2023-01-25T11:33:19.792Z,51.33
2023-01-25T11:36:07.768Z,54.17
2023-01-25T11:38:36.325Z,61.90
2023-01-25T11:41:14.952Z,59.47
2023-01-25T11:43:59.644Z,54.43
2023-01-25T11:46:41.355Z,54.87
2023-01-25T11:49:21.087Z,57.30
2023-01-25T11:51:56.010Z,64.13
2023-01-25T11:54:54.476Z,63.97
2023-01-25T11:57:43.850Z,62.20
2023-01-25T12:00:36.303Z,52.53
2023-01-25T12:03:37.819Z,56.67
2023-01-25T12:06:13.268Z,59.47
2023-01-25T12:09:04.190Z,70.13
2023-01-25T12:11:48.922Z,72.32
2023-01-25T12:14:28.794Z,83.03
2023-01-25T12:17:21.121Z,59.10
2023-01-25T12:20:14.987Z,60.20
2023-01-25T12:22:53.990Z,61.60
2023-01-25T12:25:31.332Z,68.70
2023-01-25T12:28:12.405Z,45.97
2023-01-25T12:30:49.866Z,53.20
2023-01-25T12:33:24.208Z,45.77
2023-01-25T12:36:00.073Z,57.97
2023-01-25T12:38:36.671Z,76.17
2023-01-25T12:41:14.412Z,77.07
2023-01-25T12:43:47.721Z,67.63
2023-01-25T12:46:23.176Z,62.80
2023-01-25T12:48:56.347Z,65.30
2023-01-25T12:51:30.090Z,60.73
2023-01-25T12:53:59.985Z,58.03
2023-01-25T12:56:40.931Z,61.30
2023-01-25T12:59:18.435Z,64.37
2023-01-25T13:01:52.929Z,54.00
2023-01-25T13:04:38.896Z,56.23
2023-01-25T13:07:17.329Z,52.27
2023-01-25T13:09:55.300Z,58.73
2023-01-25T13:12:24.907Z,55.60
2023-01-25T13:14:53.959Z,52.87
2023-01-25T13:17:30.961Z,52.03
2023-01-25T13:20:01.412Z,52.93
2023-01-25T13:22:58.956Z,52.60
2023-01-25T13:25:28.599Z,53.90
2023-01-25T13:28:33.403Z,50.93
2023-01-25T13:31:02.286Z,51.23
2023-01-25T13:33:36.039Z,52.33
2023-01-25T13:36:40.468Z,53.83
2023-01-25T13:39:45.326Z,54.33
2023-01-25T13:42:23.804Z,45.40
2023-01-25T13:44:54.699Z,49.57
2023-01-25T13:47:25.881Z,54.00
2023-01-25T13:50:02.023Z,54.63
2023-01-25T13:52:32.474Z,57.37
2023-01-25T13:55:02.740Z,53.70
2023-01-25T13:57:33.380Z,63.03
2023-01-25T14:00:10.595Z,77.87
2023-01-25T14:02:41.096Z,61.13
2023-01-25T14:05:20.184Z,57.03
2023-01-25T14:07:52.844Z,58.43
2023-01-25T14:10:26.484Z,55.10
2023-01-25T14:12:59.408Z,51.10
2023-01-25T14:15:30.596Z,50.17
2023-01-25T14:18:14.625Z,55.47
2023-01-25T14:20:43.700Z,50.07
2023-01-25T14:23:24.212Z,56.33
2023-01-25T14:25:55.596Z,64.87
2023-01-25T14:28:24.406Z,74.60
2023-01-25T14:30:55.039Z,72.23
2023-01-25T14:33:26.611Z,66.57
2023-01-25T14:36:01.721Z,66.27
2023-01-25T14:38:37.256Z,64.87
2023-01-25T14:41:14.325Z,90.53
2023-01-25T14:43:45.541Z,76.40
2023-01-25T14:46:26.642Z,99.43
2023-01-25T14:49:09.444Z,110.03
2023-01-25T14:51:44.950Z,107.47
2023-01-25T14:54:18.414Z,120.77
2023-01-25T14:56:50.323Z,90.47
2023-01-25T14:59:41.205Z,70.33
2023-01-25T15:02:21.541Z,60.80
2023-01-25T15:04:56.027Z,73.87
2023-01-25T15:07:36.649Z,60.70
2023-01-25T15:10:16.141Z,66.77
2023-01-25T15:13:04.102Z,70.27
2023-01-25T15:15:52.917Z,62.57
2023-01-25T15:18:46.872Z,60.57
2023-01-25T15:21:16.795Z,57.53
2023-01-25T15:23:49.415Z,73.53
2023-01-25T15:26:22.221Z,67.03
2023-01-25T15:28:52.937Z,63.97
2023-01-25T15:31:25.038Z,71.23
2023-01-25T15:33:53.928Z,70.53
2023-01-25T15:36:22.566Z,62.33
2023-01-25T15:38:51.522Z,76.57
2023-01-25T15:41:20.185Z,70.13
2023-01-25T15:43:49.526Z,84.80
2023-01-25T15:46:22.416Z,86.47
2023-01-25T15:48:52.384Z,91.93
2023-01-25T15:51:24.616Z,91.93
2023-01-25T15:53:53.407Z,79.63
2023-01-25T15:56:24.057Z,72.37
2023-01-25T15:58:55.245Z,70.03
2023-01-25T16:01:27.655Z,78.53
2023-01-25T16:03:56.991Z,77.97
2023-01-25T16:06:44.915Z,79.17
2023-01-25T16:09:17.432Z,84.63
2023-01-25T16:11:46.438Z,86.40
2023-01-25T16:14:15.307Z,75.80
2023-01-25T16:16:50.647Z,81.30
2023-01-25T16:19:22.188Z,75.53
2023-01-25T16:21:51.402Z,66.50
2023-01-25T16:24:20.543Z,81.37
2023-01-25T16:26:52.633Z,64.70
2023-01-25T16:29:23.179Z,62.63
2023-01-25T16:31:55.832Z,67.47
2023-01-25T16:34:25.441Z,65.13
2023-01-25T16:36:54.717Z,71.73
2023-01-25T16:39:25.695Z,62.67
2023-01-25T16:41:54.320Z,63.60
2023-01-25T16:44:23.042Z,65.67
2023-01-25T16:46:53.325Z,67.43
2023-01-25T16:49:24.606Z,63.67
2023-01-25T16:51:53.468Z,61.70
2023-01-25T16:54:23.761Z,67.43
2023-01-25T16:56:54.050Z,66.23
2023-01-25T16:59:24.165Z,66.33
2023-01-25T17:01:54.260Z,63.63
2023-01-25T17:04:22.848Z,63.73
2023-01-25T17:07:02.053Z,60.10
2023-01-25T17:09:30.947Z,64.13
2023-01-25T17:11:59.963Z,59.80
2023-01-25T17:14:28.523Z,59.30
2023-01-25T17:16:58.441Z,59.60
2023-01-25T17:19:27.040Z,64.00
2023-01-25T17:21:57.751Z,62.73
2023-01-25T17:24:27.799Z,59.33
2023-01-25T17:26:58.320Z,58.33
2023-01-25T17:29:27.103Z,60.33
2023-01-25T17:31:55.656Z,62.60
2023-01-25T17:34:25.770Z,72.27
2023-01-25T17:36:54.595Z,77.23
2023-01-25T17:39:23.665Z,77.13
2023-01-25T17:41:53.127Z,72.10
2023-01-25T17:44:23.544Z,74.93
2023-01-25T17:46:52.398Z,91.53
2023-01-25T17:49:22.890Z,88.60
2023-01-25T17:51:52.837Z,105.07
2023-01-25T17:54:21.500Z,84.73
2023-01-25T17:56:51.353Z,89.30
2023-01-25T17:59:20.004Z,84.37
2023-01-25T18:01:49.104Z,75.83
2023-01-25T18:04:18.237Z,79.37
2023-01-25T18:06:46.749Z,86.43
2023-01-25T18:09:16.785Z,77.93
2023-01-25T18:11:46.367Z,75.87
2023-01-25T18:14:17.205Z,72.73
2023-01-25T18:16:46.365Z,72.53
2023-01-25T18:19:15.346Z,68.80
2023-01-25T18:21:44.052Z,69.73
2023-01-25T18:24:32.332Z,70.53
2023-01-25T18:27:05.126Z,68.80
2023-01-25T18:29:48.454Z,68.80
2023-01-25T18:32:17.394Z,70.43
2023-01-25T18:34:48.291Z,69.63
2023-01-25T18:37:21.230Z,73.70
2023-01-25T18:39:52.305Z,69.60
2023-01-25T18:42:22.494Z,67.87
2023-01-25T18:44:51.374Z,76.33
2023-01-25T18:47:22.060Z,72.17
2023-01-25T18:49:51.685Z,74.43
2023-01-25T18:52:21.986Z,73.70
2023-01-25T18:54:52.841Z,72.00
2023-01-25T18:57:21.907Z,77.70
2023-01-25T18:59:50.545Z,76.50
2023-01-25T19:02:19.940Z,71.17
2023-01-25T19:04:48.587Z,67.77
2023-01-25T19:07:17.120Z,71.73
2023-01-25T19:09:48.159Z,67.30
2023-01-25T19:12:18.069Z,72.67
2023-01-25T19:14:46.545Z,73.03
2023-01-25T19:17:15.392Z,79.63
2023-01-25T19:19:44.375Z,72.60
2023-01-25T19:22:12.909Z,70.93
2023-01-25T19:24:41.524Z,67.07
2023-01-25T19:27:10.132Z,64.47
2023-01-25T19:29:40.132Z,63.83
2023-01-25T19:32:10.991Z,81.33
2023-01-25T19:34:39.747Z,68.50
2023-01-25T19:37:08.292Z,66.40
2023-01-25T19:39:37.254Z,71.07
2023-01-25T19:42:06.901Z,66.67
2023-01-25T19:44:35.573Z,61.97
2023-01-25T19:47:05.770Z,66.23
2023-01-25T19:49:34.480Z,64.63
2023-01-25T19:52:03.866Z,64.57
2023-01-25T19:54:32.435Z,61.27
2023-01-25T19:57:00.947Z,68.47
2023-01-25T19:59:29.816Z,65.97
2023-01-25T20:01:58.515Z,64.27
2023-01-25T20:04:28.555Z,59.43
2023-01-25T20:06:57.089Z,68.73
2023-01-25T20:09:28.361Z,69.63
2023-01-25T20:11:57.901Z,56.30
2023-01-25T20:14:28.114Z,89.70
2023-01-25T20:16:57.006Z,72.83
2023-01-25T20:19:25.476Z,65.10
2023-01-25T20:21:55.735Z,59.77
2023-01-25T20:24:24.427Z,62.13
2023-01-25T20:26:53.055Z,64.07
2023-01-25T20:29:22.560Z,66.20
2023-01-25T20:31:51.247Z,69.53
2023-01-25T20:34:22.281Z,60.43
2023-01-25T20:36:52.053Z,57.07
2023-01-25T20:39:23.293Z,71.50
2023-01-25T20:41:53.814Z,59.97
2023-01-25T20:44:22.669Z,60.17
2023-01-25T20:46:54.682Z,59.47
2023-01-25T20:49:23.589Z,66.10
2023-01-25T20:51:52.571Z,62.83
2023-01-25T20:54:22.829Z,65.73
2023-01-25T20:56:51.646Z,60.40
2023-01-25T20:59:20.524Z,62.70
2023-01-25T21:01:50.452Z,68.27
2023-01-25T21:04:19.021Z,70.57
2023-01-25T21:06:47.542Z,72.87
2023-01-25T21:09:16.452Z,70.00
2023-01-25T21:11:46.454Z,69.20
2023-01-25T21:14:15.113Z,75.53
2023-01-25T21:16:43.947Z,74.57
2023-01-25T21:19:12.428Z,64.53
2023-01-25T21:21:40.988Z,70.23
2023-01-25T21:24:12.025Z,70.93
2023-01-25T21:26:40.644Z,71.40
2023-01-25T21:29:10.578Z,78.70
2023-01-25T21:31:42.764Z,69.23
2023-01-25T21:34:11.834Z,67.23
2023-01-25T21:36:40.718Z,72.53
2023-01-25T21:39:09.461Z,68.83
2023-01-25T21:41:38.047Z,68.63
2023-01-25T21:44:24.193Z,63.87
2023-01-25T21:47:23.556Z,60.47
2023-01-25T21:50:00.118Z,58.57
2023-01-25T21:52:28.955Z,69.33
2023-01-25T21:54:57.538Z,65.40
2023-01-25T21:57:26.319Z,70.30
2023-01-25T21:59:54.909Z,47.22
2023-01-25T22:02:24.910Z,59.03
2023-01-25T22:04:53.476Z,76.97
2023-01-25T22:07:22.075Z,81.23
2023-01-25T22:09:50.666Z,66.27
2023-01-25T22:12:19.361Z,51.22
2023-01-25T22:14:47.916Z,68.10
2023-01-25T22:17:16.428Z,72.47
2023-01-25T22:19:46.369Z,71.40
2023-01-25T22:22:19.431Z,49.93
2023-01-25T22:24:48.442Z,75.17
2023-01-25T22:27:37.031Z,78.67
2023-01-25T22:30:06.872Z,63.40
2023-01-25T22:32:35.417Z,60.57
2023-01-25T22:35:05.664Z,57.97
2023-01-25T22:37:38.253Z,55.37
2023-01-25T22:40:09.081Z,54.70
2023-01-25T22:42:37.961Z,59.77
2023-01-25T22:45:08.015Z,56.23
2023-01-25T22:47:36.509Z,57.60
2023-01-25T22:50:07.499Z,61.23
2023-01-25T22:52:36.091Z,59.20
2023-01-25T22:55:04.679Z,57.00
2023-01-25T22:57:33.261Z,56.53
2023-01-25T23:00:01.911Z,54.50
2023-01-25T23:02:30.533Z,57.83
2023-01-25T23:04:59.139Z,59.50
2023-01-25T23:07:29.250Z,59.27
2023-01-25T23:09:57.812Z,56.10
2023-01-25T23:12:26.476Z,55.17
2023-01-25T23:14:55.107Z,54.93
2023-01-25T23:17:42.565Z,57.17
2023-01-25T23:20:13.457Z,57.17
2023-01-25T23:22:44.008Z,56.80
2023-01-25T23:25:13.257Z,65.23
2023-01-25T23:27:42.320Z,65.27
2023-01-25T23:30:12.325Z,61.43
2023-01-25T23:32:49.343Z,59.23
2023-01-25T23:35:19.385Z,62.00
2023-01-25T23:37:50.212Z,57.87
2023-01-25T23:40:19.309Z,57.97
2023-01-25T23:42:47.804Z,59.47
2023-01-25T23:45:16.393Z,59.90
2023-01-25T23:47:45.152Z,59.90
2023-01-25T23:50:14.073Z,57.90
2023-01-25T23:52:43.070Z,61.40
2023-01-25T23:55:13.501Z,60.20
2023-01-25T23:57:42.084Z,64.03
